sensor_id;sensor_type;location;lat;lon;timestamp;P1;durP1;ratioP1;P2;durP2;ratioP2
23684;SDS011;12020;51.384;6.908;2022-12-07T00:01:21;24.93;;;22.43;;
23684;SDS011;12020;51.384;6.908;2022-12-07T00:03:54;24.95;;;22.45;;
23684;SDS011;12020;51.384;6.908;2022-12-07T00:06:26;25.33;;;22.75;;
23684;SDS011;12020;51.384;6.908;2022-12-07T00:08:54;24.80;;;22.23;;
23684;SDS011;12020;51.384;6.908;2022-12-07T00:11:21;24.75;;;22.25;;
23684;SDS011;12020;51.384;6.908;2022-12-07T00:13:53;25.48;;;22.88;;
23684;SDS011;12020;51.384;6.908;2022-12-07T00:16:22;25.17;;;22.55;;
23684;SDS011;12020;51.384;6.908;2022-12-07T00:18:50;23.65;;;21.35;;
23684;SDS011;12020;51.384;6.908;2022-12-07T00:21:18;24.70;;;22.17;;
23684;SDS011;12020;51.384;6.908;2022-12-07T00:23:50;23.33;;;21.13;;
23684;SDS011;12020;51.384;6.908;2022-12-07T00:26:18;24.38;;;21.98;;
23684;SDS011;12020;51.384;6.908;2022-12-07T00:28:47;23.02;;;20.70;;
23684;SDS011;12020;51.384;6.908;2022-12-07T00:31:15;23.17;;;20.92;;
23684;SDS011;12020;51.384;6.908;2022-12-07T00:33:43;23.17;;;20.88;;
23684;SDS011;12020;51.384;6.908;2022-12-07T00:36:18;23.35;;;21.02;;
23684;SDS011;12020;51.384;6.908;2022-12-07T00:38:46;23.80;;;21.50;;
23684;SDS011;12020;51.384;6.908;2022-12-07T00:41:16;23.60;;;21.25;;
23684;SDS011;12020;51.384;6.908;2022-12-07T00:43:44;24.20;;;21.80;;
23684;SDS011;12020;51.384;6.908;2022-12-07T00:46:14;24.30;;;21.75;;
23684;SDS011;12020;51.384;6.908;2022-12-07T00:48:41;24.75;;;22.15;;
23684;SDS011;12020;51.384;6.908;2022-12-07T00:51:07;25.00;;;22.50;;
23684;SDS011;12020;51.384;6.908;2022-12-07T00:53:35;24.05;;;21.60;;
23684;SDS011;12020;51.384;6.908;2022-12-07T00:56:22;24.15;;;21.75;;
23684;SDS011;12020;51.384;6.908;2022-12-07T00:58:54;24.98;;;22.48;;
23684;SDS011;12020;51.384;6.908;2022-12-07T01:01:25;24.63;;;22.27;;
23684;SDS011;12020;51.384;6.908;2022-12-07T01:03:54;24.98;;;22.55;;
23684;SDS011;12020;51.384;6.908;2022-12-07T01:06:21;24.58;;;22.08;;
23684;SDS011;12020;51.384;6.908;2022-12-07T01:08:49;25.55;;;22.85;;
23684;SDS011;12020;51.384;6.908;2022-12-07T01:11:16;24.80;;;22.27;;
23684;SDS011;12020;51.384;6.908;2022-12-07T01:13:44;24.15;;;21.75;;
23684;SDS011;12020;51.384;6.908;2022-12-07T01:16:14;23.30;;;21.10;;
23684;SDS011;12020;51.384;6.908;2022-12-07T01:18:48;24.43;;;22.03;;
23684;SDS011;12020;51.384;6.908;2022-12-07T01:21:16;24.02;;;21.70;;
23684;SDS011;12020;51.384;6.908;2022-12-07T01:23:46;24.58;;;21.92;;
23684;SDS011;12020;51.384;6.908;2022-12-07T01:26:14;23.48;;;21.08;;
23684;SDS011;12020;51.384;6.908;2022-12-07T01:28:42;25.00;;;22.48;;
23684;SDS011;12020;51.384;6.908;2022-12-07T01:31:10;24.75;;;22.25;;
23684;SDS011;12020;51.384;6.908;2022-12-07T01:33:40;24.13;;;21.73;;
23684;SDS011;12020;51.384;6.908;2022-12-07T01:36:13;24.10;;;21.70;;
23684;SDS011;12020;51.384;6.908;2022-12-07T01:38:41;24.07;;;21.57;;
23684;SDS011;12020;51.384;6.908;2022-12-07T01:41:07;23.83;;;21.63;;
23684;SDS011;12020;51.384;6.908;2022-12-07T01:43:34;23.63;;;21.33;;
23684;SDS011;12020;51.384;6.908;2022-12-07T01:46:00;24.13;;;21.80;;
23684;SDS011;12020;51.384;6.908;2022-12-07T01:48:37;24.05;;;21.65;;
23684;SDS011;12020;51.384;6.908;2022-12-07T01:51:08;24.25;;;21.95;;
23684;SDS011;12020;51.384;6.908;2022-12-07T01:53:41;23.70;;;21.33;;
23684;SDS011;12020;51.384;6.908;2022-12-07T01:56:11;23.30;;;20.85;;
23684;SDS011;12020;51.384;6.908;2022-12-07T01:58:44;24.20;;;21.65;;
23684;SDS011;12020;51.384;6.908;2022-12-07T02:01:12;22.95;;;20.60;;
23684;SDS011;12020;51.384;6.908;2022-12-07T02:03:41;23.92;;;21.45;;
23684;SDS011;12020;51.384;6.908;2022-12-07T02:06:09;22.67;;;20.58;;
23684;SDS011;12020;51.384;6.908;2022-12-07T02:08:37;23.65;;;21.35;;
23684;SDS011;12020;51.384;6.908;2022-12-07T02:11:04;23.83;;;21.35;;
23684;SDS011;12020;51.384;6.908;2022-12-07T02:13:33;23.88;;;21.38;;
23684;SDS011;12020;51.384;6.908;2022-12-07T02:16:05;22.95;;;20.75;;
23684;SDS011;12020;51.384;6.908;2022-12-07T02:21:40;24.17;;;21.58;;
23684;SDS011;12020;51.384;6.908;2022-12-07T02:29:49;24.50;;;22.00;;
23684;SDS011;12020;51.384;6.908;2022-12-07T02:35:32;24.63;;;22.00;;
23684;SDS011;12020;51.384;6.908;2022-12-07T02:38:07;23.25;;;20.92;;
23684;SDS011;12020;51.384;6.908;2022-12-07T02:40:53;23.50;;;21.10;;
23684;SDS011;12020;51.384;6.908;2022-12-07T02:43:26;23.10;;;20.80;;
23684;SDS011;12020;51.384;6.908;2022-12-07T02:46:01;24.13;;;21.73;;
23684;SDS011;12020;51.384;6.908;2022-12-07T02:48:34;24.27;;;21.77;;
23684;SDS011;12020;51.384;6.908;2022-12-07T02:51:05;24.20;;;21.80;;
23684;SDS011;12020;51.384;6.908;2022-12-07T02:53:38;24.15;;;21.75;;
23684;SDS011;12020;51.384;6.908;2022-12-07T02:56:18;24.60;;;22.10;;
23684;SDS011;12020;51.384;6.908;2022-12-07T03:02:14;23.42;;;21.08;;
23684;SDS011;12020;51.384;6.908;2022-12-07T03:10:40;23.95;;;21.35;;
23684;SDS011;12020;51.384;6.908;2022-12-07T03:16:17;23.42;;;21.02;;
23684;SDS011;12020;51.384;6.908;2022-12-07T03:18:55;23.65;;;21.25;;
23684;SDS011;12020;51.384;6.908;2022-12-07T03:21:31;22.75;;;20.48;;
23684;SDS011;12020;51.384;6.908;2022-12-07T03:24:04;22.60;;;20.23;;
23684;SDS011;12020;51.384;6.908;2022-12-07T03:26:36;23.35;;;20.90;;
23684;SDS011;12020;51.384;6.908;2022-12-07T03:29:12;22.48;;;20.20;;
23684;SDS011;12020;51.384;6.908;2022-12-07T03:31:44;22.00;;;19.70;;
23684;SDS011;12020;51.384;6.908;2022-12-07T03:34:18;21.90;;;19.60;;
23684;SDS011;12020;51.384;6.908;2022-12-07T03:37:02;21.05;;;19.05;;
23684;SDS011;12020;51.384;6.908;2022-12-07T03:39:44;22.30;;;19.08;;
23684;SDS011;12020;51.384;6.908;2022-12-07T03:42:19;22.20;;;19.80;;
23684;SDS011;12020;51.384;6.908;2022-12-07T03:44:46;21.67;;;19.42;;
23684;SDS011;12020;51.384;6.908;2022-12-07T03:49:58;21.92;;;19.67;;
23684;SDS011;12020;51.384;6.908;2022-12-07T03:52:35;21.90;;;19.70;;
23684;SDS011;12020;51.384;6.908;2022-12-07T03:55:09;21.52;;;19.33;;
23684;SDS011;12020;51.384;6.908;2022-12-07T04:00:17;21.55;;;19.38;;
23684;SDS011;12020;51.384;6.908;2022-12-07T04:02:53;22.08;;;19.88;;
23684;SDS011;12020;51.384;6.908;2022-12-07T04:05:21;21.83;;;19.63;;
23684;SDS011;12020;51.384;6.908;2022-12-07T04:07:48;22.10;;;19.95;;
23684;SDS011;12020;51.384;6.908;2022-12-07T04:10:14;22.13;;;19.43;;
23684;SDS011;12020;51.384;6.908;2022-12-07T04:12:42;21.48;;;19.40;;
23684;SDS011;12020;51.384;6.908;2022-12-07T04:15:10;21.88;;;19.33;;
23684;SDS011;12020;51.384;6.908;2022-12-07T04:17:37;21.92;;;19.52;;
23684;SDS011;12020;51.384;6.908;2022-12-07T04:20:05;21.15;;;18.95;;
23684;SDS011;12020;51.384;6.908;2022-12-07T04:22:32;21.50;;;19.33;;
23684;SDS011;12020;51.384;6.908;2022-12-07T04:24:59;21.92;;;19.58;;
23684;SDS011;12020;51.384;6.908;2022-12-07T04:27:28;21.70;;;19.45;;
23684;SDS011;12020;51.384;6.908;2022-12-07T04:29:54;21.40;;;19.10;;
23684;SDS011;12020;51.384;6.908;2022-12-07T04:32:21;20.50;;;18.40;;
23684;SDS011;12020;51.384;6.908;2022-12-07T04:34:49;21.60;;;19.33;;
23684;SDS011;12020;51.384;6.908;2022-12-07T04:37:15;21.95;;;19.55;;
23684;SDS011;12020;51.384;6.908;2022-12-07T04:39:44;20.42;;;18.30;;
23684;SDS011;12020;51.384;6.908;2022-12-07T04:42:10;21.08;;;18.88;;
23684;SDS011;12020;51.384;6.908;2022-12-07T04:44:39;21.77;;;19.30;;
23684;SDS011;12020;51.384;6.908;2022-12-07T04:47:05;20.63;;;18.58;;
23684;SDS011;12020;51.384;6.908;2022-12-07T04:49:32;20.42;;;18.38;;
23684;SDS011;12020;51.384;6.908;2022-12-07T04:51:59;20.92;;;18.30;;
23684;SDS011;12020;51.384;6.908;2022-12-07T04:54:25;20.73;;;18.52;;
23684;SDS011;12020;51.384;6.908;2022-12-07T04:56:51;20.38;;;18.27;;
23684;SDS011;12020;51.384;6.908;2022-12-07T04:59:19;20.55;;;18.35;;
23684;SDS011;12020;51.384;6.908;2022-12-07T05:01:46;20.52;;;18.40;;
23684;SDS011;12020;51.384;6.908;2022-12-07T05:04:13;20.90;;;18.48;;
23684;SDS011;12020;51.384;6.908;2022-12-07T05:06:40;20.67;;;18.47;;
23684;SDS011;12020;51.384;6.908;2022-12-07T05:09:07;21.15;;;18.88;;
23684;SDS011;12020;51.384;6.908;2022-12-07T05:11:33;20.67;;;18.58;;
23684;SDS011;12020;51.384;6.908;2022-12-07T05:14:03;20.88;;;18.73;;
23684;SDS011;12020;51.384;6.908;2022-12-07T05:16:32;20.65;;;18.52;;
23684;SDS011;12020;51.384;6.908;2022-12-07T05:18:57;20.77;;;18.58;;
23684;SDS011;12020;51.384;6.908;2022-12-07T05:21:24;20.70;;;18.63;;
23684;SDS011;12020;51.384;6.908;2022-12-07T05:23:50;20.90;;;18.80;;
23684;SDS011;12020;51.384;6.908;2022-12-07T05:26:18;19.67;;;17.55;;
23684;SDS011;12020;51.384;6.908;2022-12-07T05:28:45;20.10;;;18.05;;
23684;SDS011;12020;51.384;6.908;2022-12-07T05:31:15;20.52;;;18.33;;
23684;SDS011;12020;51.384;6.908;2022-12-07T05:33:42;19.20;;;17.20;;
23684;SDS011;12020;51.384;6.908;2022-12-07T05:36:08;18.95;;;16.90;;
23684;SDS011;12020;51.384;6.908;2022-12-07T05:38:35;21.37;;;17.33;;
23684;SDS011;12020;51.384;6.908;2022-12-07T05:41:02;19.00;;;17.08;;
23684;SDS011;12020;51.384;6.908;2022-12-07T05:43:30;18.93;;;16.97;;
23684;SDS011;12020;51.384;6.908;2022-12-07T05:45:57;19.65;;;17.65;;
23684;SDS011;12020;51.384;6.908;2022-12-07T05:48:24;19.75;;;16.88;;
23684;SDS011;12020;51.384;6.908;2022-12-07T05:50:51;18.90;;;16.92;;
23684;SDS011;12020;51.384;6.908;2022-12-07T05:53:18;18.95;;;16.73;;
23684;SDS011;12020;51.384;6.908;2022-12-07T05:55:45;19.38;;;17.02;;
23684;SDS011;12020;51.384;6.908;2022-12-07T05:58:12;19.23;;;16.35;;
23684;SDS011;12020;51.384;6.908;2022-12-07T06:00:57;18.17;;;16.10;;
23684;SDS011;12020;51.384;6.908;2022-12-07T06:03:24;18.52;;;16.52;;
23684;SDS011;12020;51.384;6.908;2022-12-07T06:05:51;18.15;;;16.25;;
23684;SDS011;12020;51.384;6.908;2022-12-07T06:08:18;18.30;;;16.20;;
23684;SDS011;12020;51.384;6.908;2022-12-07T06:13:44;16.75;;;14.73;;
23684;SDS011;12020;51.384;6.908;2022-12-07T06:16:11;17.55;;;14.85;;
23684;SDS011;12020;51.384;6.908;2022-12-07T06:18:37;18.13;;;15.13;;
23684;SDS011;12020;51.384;6.908;2022-12-07T06:21:04;15.88;;;14.18;;
23684;SDS011;12020;51.384;6.908;2022-12-07T06:23:30;15.80;;;14.23;;
23684;SDS011;12020;51.384;6.908;2022-12-07T06:25:56;15.52;;;13.88;;
23684;SDS011;12020;51.384;6.908;2022-12-07T06:28:22;16.95;;;14.32;;
23684;SDS011;12020;51.384;6.908;2022-12-07T06:30:56;16.55;;;14.70;;
23684;SDS011;12020;51.384;6.908;2022-12-07T06:33:26;17.00;;;14.85;;
23684;SDS011;12020;51.384;6.908;2022-12-07T06:35:52;17.13;;;15.13;;
23684;SDS011;12020;51.384;6.908;2022-12-07T06:38:18;17.52;;;15.25;;
23684;SDS011;12020;51.384;6.908;2022-12-07T06:40:45;16.90;;;15.05;;
23684;SDS011;12020;51.384;6.908;2022-12-07T06:43:11;18.98;;;15.13;;
23684;SDS011;12020;51.384;6.908;2022-12-07T06:45:37;16.25;;;14.63;;
23684;SDS011;12020;51.384;6.908;2022-12-07T06:48:04;16.92;;;15.07;;
23684;SDS011;12020;51.384;6.908;2022-12-07T06:50:29;16.30;;;14.60;;
23684;SDS011;12020;51.384;6.908;2022-12-07T06:52:55;17.48;;;15.25;;
23684;SDS011;12020;51.384;6.908;2022-12-07T06:55:22;15.83;;;14.17;;
23684;SDS011;12020;51.384;6.908;2022-12-07T06:57:47;16.93;;;14.97;;
23684;SDS011;12020;51.384;6.908;2022-12-07T07:00:13;17.03;;;15.03;;
23684;SDS011;12020;51.384;6.908;2022-12-07T07:02:39;16.77;;;15.07;;
23684;SDS011;12020;51.384;6.908;2022-12-07T07:05:05;16.23;;;14.45;;
23684;SDS011;12020;51.384;6.908;2022-12-07T07:07:31;17.03;;;15.20;;
23684;SDS011;12020;51.384;6.908;2022-12-07T07:09:58;17.85;;;15.27;;
23684;SDS011;12020;51.384;6.908;2022-12-07T07:12:24;15.73;;;14.10;;
23684;SDS011;12020;51.384;6.908;2022-12-07T07:14:50;16.63;;;14.82;;
23684;SDS011;12020;51.384;6.908;2022-12-07T07:17:16;16.73;;;14.93;;
23684;SDS011;12020;51.384;6.908;2022-12-07T07:19:42;16.97;;;15.10;;
23684;SDS011;12020;51.384;6.908;2022-12-07T07:22:08;17.00;;;15.20;;
23684;SDS011;12020;51.384;6.908;2022-12-07T07:24:34;16.83;;;15.00;;
23684;SDS011;12020;51.384;6.908;2022-12-07T07:27:00;16.02;;;14.30;;
23684;SDS011;12020;51.384;6.908;2022-12-07T07:29:26;18.67;;;15.13;;
23684;SDS011;12020;51.384;6.908;2022-12-07T07:31:52;15.90;;;14.15;;
23684;SDS011;12020;51.384;6.908;2022-12-07T07:34:17;16.05;;;14.32;;
23684;SDS011;12020;51.384;6.908;2022-12-07T07:36:44;15.82;;;14.05;;
23684;SDS011;12020;51.384;6.908;2022-12-07T07:39:10;15.17;;;13.60;;
23684;SDS011;12020;51.384;6.908;2022-12-07T07:41:37;16.15;;;13.90;;
23684;SDS011;12020;51.384;6.908;2022-12-07T07:44:04;17.00;;;13.82;;
23684;SDS011;12020;51.384;6.908;2022-12-07T07:46:30;15.07;;;13.48;;
23684;SDS011;12020;51.384;6.908;2022-12-07T07:48:58;14.93;;;13.43;;
23684;SDS011;12020;51.384;6.908;2022-12-07T07:51:24;15.50;;;13.35;;
23684;SDS011;12020;51.384;6.908;2022-12-07T07:53:49;13.73;;;12.32;;
23684;SDS011;12020;51.384;6.908;2022-12-07T07:56:16;15.53;;;13.83;;
23684;SDS011;12020;51.384;6.908;2022-12-07T07:58:42;17.17;;;14.13;;
23684;SDS011;12020;51.384;6.908;2022-12-07T08:01:08;16.55;;;14.00;;
23684;SDS011;12020;51.384;6.908;2022-12-07T08:03:34;16.38;;;13.13;;
23684;SDS011;12020;51.384;6.908;2022-12-07T08:06:04;15.40;;;13.52;;
23684;SDS011;12020;51.384;6.908;2022-12-07T08:08:30;15.32;;;13.65;;
23684;SDS011;12020;51.384;6.908;2022-12-07T08:10:58;14.55;;;13.02;;
23684;SDS011;12020;51.384;6.908;2022-12-07T08:13:26;14.43;;;12.85;;
23684;SDS011;12020;51.384;6.908;2022-12-07T08:15:52;14.13;;;12.57;;
23684;SDS011;12020;51.384;6.908;2022-12-07T08:18:18;14.33;;;12.83;;
23684;SDS011;12020;51.384;6.908;2022-12-07T08:20:44;14.43;;;12.32;;
23684;SDS011;12020;51.384;6.908;2022-12-07T08:23:10;14.10;;;12.17;;
23684;SDS011;12020;51.384;6.908;2022-12-07T08:25:37;14.63;;;12.00;;
23684;SDS011;12020;51.384;6.908;2022-12-07T08:28:03;14.68;;;11.45;;
23684;SDS011;12020;51.384;6.908;2022-12-07T08:30:34;15.47;;;11.57;;
23684;SDS011;12020;51.384;6.908;2022-12-07T08:33:00;13.32;;;11.45;;
23684;SDS011;12020;51.384;6.908;2022-12-07T08:35:26;13.23;;;10.68;;
23684;SDS011;12020;51.384;6.908;2022-12-07T08:37:52;11.93;;;10.60;;
23684;SDS011;12020;51.384;6.908;2022-12-07T08:40:18;12.50;;;10.47;;
23684;SDS011;12020;51.384;6.908;2022-12-07T08:42:49;14.45;;;10.88;;
23684;SDS011;12020;51.384;6.908;2022-12-07T08:45:16;12.80;;;10.60;;
23684;SDS011;12020;51.384;6.908;2022-12-07T08:47:48;12.27;;;9.98;;
23684;SDS011;12020;51.384;6.908;2022-12-07T08:50:16;10.90;;;9.70;;
23684;SDS011;12020;51.384;6.908;2022-12-07T08:52:42;10.55;;;9.45;;
23684;SDS011;12020;51.384;6.908;2022-12-07T08:55:11;13.55;;;11.70;;
23684;SDS011;12020;51.384;6.908;2022-12-07T08:57:38;14.13;;;11.50;;
23684;SDS011;12020;51.384;6.908;2022-12-07T09:00:05;14.75;;;12.10;;
23684;SDS011;12020;51.384;6.908;2022-12-07T09:02:32;14.77;;;13.02;;
23684;SDS011;12020;51.384;6.908;2022-12-07T09:04:58;14.65;;;12.45;;
23684;SDS011;12020;51.384;6.908;2022-12-07T09:07:24;17.10;;;12.88;;
23684;SDS011;12020;51.384;6.908;2022-12-07T09:09:51;15.25;;;11.60;;
23684;SDS011;12020;51.384;6.908;2022-12-07T09:12:16;14.40;;;11.95;;
23684;SDS011;12020;51.384;6.908;2022-12-07T09:14:42;14.88;;;12.10;;
23684;SDS011;12020;51.384;6.908;2022-12-07T09:17:09;14.93;;;12.10;;
23684;SDS011;12020;51.384;6.908;2022-12-07T09:19:37;15.48;;;12.30;;
23684;SDS011;12020;51.384;6.908;2022-12-07T09:22:03;13.98;;;11.77;;
23684;SDS011;12020;51.384;6.908;2022-12-07T09:24:30;12.65;;;11.35;;
23684;SDS011;12020;51.384;6.908;2022-12-07T09:26:56;13.80;;;11.77;;
23684;SDS011;12020;51.384;6.908;2022-12-07T09:29:23;12.50;;;10.93;;
23684;SDS011;12020;51.384;6.908;2022-12-07T09:31:49;13.98;;;11.13;;
23684;SDS011;12020;51.384;6.908;2022-12-07T09:34:16;13.90;;;10.20;;
23684;SDS011;12020;51.384;6.908;2022-12-07T09:36:44;12.25;;;10.38;;
23684;SDS011;12020;51.384;6.908;2022-12-07T09:39:10;13.75;;;9.40;;
23684;SDS011;12020;51.384;6.908;2022-12-07T09:41:39;12.00;;;9.52;;
23684;SDS011;12020;51.384;6.908;2022-12-07T09:44:12;12.90;;;9.95;;
23684;SDS011;12020;51.384;6.908;2022-12-07T09:46:42;12.55;;;9.48;;
23684;SDS011;12020;51.384;6.908;2022-12-07T09:49:10;12.00;;;8.73;;
23684;SDS011;12020;51.384;6.908;2022-12-07T09:51:38;12.43;;;8.10;;
23684;SDS011;12020;51.384;6.908;2022-12-07T09:54:04;11.80;;;8.43;;
23684;SDS011;12020;51.384;6.908;2022-12-07T09:56:30;12.13;;;8.03;;
23684;SDS011;12020;51.384;6.908;2022-12-07T09:59:00;11.60;;;7.40;;
23684;SDS011;12020;51.384;6.908;2022-12-07T10:01:29;11.35;;;8.02;;
23684;SDS011;12020;51.384;6.908;2022-12-07T10:04:02;10.33;;;7.77;;
23684;SDS011;12020;51.384;6.908;2022-12-07T10:06:40;11.13;;;8.03;;
23684;SDS011;12020;51.384;6.908;2022-12-07T10:09:14;11.88;;;8.60;;
23684;SDS011;12020;51.384;6.908;2022-12-07T10:12:00;9.25;;;7.55;;
23684;SDS011;12020;51.384;6.908;2022-12-07T10:15:21;8.82;;;7.07;;
23684;SDS011;12020;51.384;6.908;2022-12-07T10:17:40;10.73;;;7.20;;
23684;SDS011;12020;51.384;6.908;2022-12-07T10:20:16;10.35;;;6.88;;
23684;SDS011;12020;51.384;6.908;2022-12-07T10:23:04;9.43;;;6.60;;
23684;SDS011;12020;51.384;6.908;2022-12-07T10:25:38;10.63;;;6.88;;
23684;SDS011;12020;51.384;6.908;2022-12-07T10:30:49;9.38;;;6.72;;
23684;SDS011;12020;51.384;6.908;2022-12-07T10:36:09;10.68;;;5.72;;
23684;SDS011;12020;51.384;6.908;2022-12-07T10:38:47;8.95;;;5.75;;
23684;SDS011;12020;51.384;6.908;2022-12-07T10:41:15;9.82;;;5.90;;
23684;SDS011;12020;51.384;6.908;2022-12-07T10:43:54;8.90;;;6.10;;
23684;SDS011;12020;51.384;6.908;2022-12-07T10:49:24;9.25;;;5.30;;
23684;SDS011;12020;51.384;6.908;2022-12-07T10:52:00;8.45;;;5.78;;
23684;SDS011;12020;51.384;6.908;2022-12-07T10:57:00;9.30;;;5.60;;
23684;SDS011;12020;51.384;6.908;2022-12-07T10:59:47;9.45;;;5.60;;
23684;SDS011;12020;51.384;6.908;2022-12-07T11:13:23;7.43;;;6.13;;
23684;SDS011;12020;51.384;6.908;2022-12-07T11:16:04;9.57;;;6.63;;
23684;SDS011;12020;51.384;6.908;2022-12-07T11:18:55;12.93;;;7.78;;
23684;SDS011;12020;51.384;6.908;2022-12-07T11:21:35;10.20;;;7.03;;
23684;SDS011;12020;51.384;6.908;2022-12-07T11:24:10;9.98;;;7.10;;
23684;SDS011;12020;51.384;6.908;2022-12-07T11:26:49;10.23;;;6.80;;
23684;SDS011;12020;51.384;6.908;2022-12-07T11:35:08;6.75;;;4.85;;
23684;SDS011;12020;51.384;6.908;2022-12-07T11:37:33;9.43;;;5.30;;
23684;SDS011;12020;51.384;6.908;2022-12-07T11:40:15;7.10;;;5.00;;
23684;SDS011;12020;51.384;6.908;2022-12-07T11:45:41;8.07;;;4.70;;
23684;SDS011;12020;51.384;6.908;2022-12-07T11:48:14;7.60;;;4.38;;
23684;SDS011;12020;51.384;6.908;2022-12-07T11:50:57;8.50;;;4.70;;
23684;SDS011;12020;51.384;6.908;2022-12-07T11:56:06;7.68;;;4.30;;
23684;SDS011;12020;51.384;6.908;2022-12-07T12:04:05;8.25;;;4.15;;
23684;SDS011;12020;51.384;6.908;2022-12-07T12:06:35;8.48;;;4.43;;
23684;SDS011;12020;51.384;6.908;2022-12-07T12:09:18;6.25;;;4.05;;
23684;SDS011;12020;51.384;6.908;2022-12-07T12:20:21;7.65;;;3.55;;
23684;SDS011;12020;51.384;6.908;2022-12-07T12:22:54;5.70;;;3.33;;
23684;SDS011;12020;51.384;6.908;2022-12-07T12:25:40;6.47;;;3.50;;
23684;SDS011;12020;51.384;6.908;2022-12-07T12:28:22;7.28;;;3.60;;
23684;SDS011;12020;51.384;6.908;2022-12-07T12:33:50;6.68;;;3.58;;
23684;SDS011;12020;51.384;6.908;2022-12-07T12:36:20;5.47;;;3.35;;
23684;SDS011;12020;51.384;6.908;2022-12-07T12:39:13;8.25;;;3.90;;
23684;SDS011;12020;51.384;6.908;2022-12-07T12:51:42;7.10;;;3.50;;
23684;SDS011;12020;51.384;6.908;2022-12-07T12:54:18;7.82;;;3.65;;
23684;SDS011;12020;51.384;6.908;2022-12-07T12:56:51;6.60;;;3.50;;
23684;SDS011;12020;51.384;6.908;2022-12-07T12:59:32;7.30;;;3.70;;
23684;SDS011;12020;51.384;6.908;2022-12-07T13:02:20;8.43;;;4.07;;
23684;SDS011;12020;51.384;6.908;2022-12-07T13:04:53;7.23;;;4.40;;
23684;SDS011;12020;51.384;6.908;2022-12-07T13:10:53;6.32;;;3.28;;
23684;SDS011;12020;51.384;6.908;2022-12-07T13:15:40;6.10;;;2.75;;
23684;SDS011;12020;51.384;6.908;2022-12-07T13:28:50;3.53;;;1.70;;
23684;SDS011;12020;51.384;6.908;2022-12-07T13:34:04;3.83;;;1.80;;
23684;SDS011;12020;51.384;6.908;2022-12-07T13:36:50;5.10;;;2.20;;
23684;SDS011;12020;51.384;6.908;2022-12-07T13:39:18;4.22;;;2.30;;
23684;SDS011;12020;51.384;6.908;2022-12-07T13:41:51;3.95;;;2.20;;
23684;SDS011;12020;51.384;6.908;2022-12-07T13:44:23;7.00;;;2.38;;
23684;SDS011;12020;51.384;6.908;2022-12-07T13:47:00;5.90;;;3.05;;
23684;SDS011;12020;51.384;6.908;2022-12-07T13:49:39;5.68;;;2.97;;
23684;SDS011;12020;51.384;6.908;2022-12-07T13:52:17;6.53;;;3.00;;
23684;SDS011;12020;51.384;6.908;2022-12-07T13:54:47;6.53;;;3.05;;
23684;SDS011;12020;51.384;6.908;2022-12-07T13:57:22;8.07;;;3.30;;
23684;SDS011;12020;51.384;6.908;2022-12-07T13:59:50;6.65;;;3.40;;
23684;SDS011;12020;51.384;6.908;2022-12-07T14:02:21;6.30;;;3.45;;
23684;SDS011;12020;51.384;6.908;2022-12-07T14:04:51;7.18;;;3.55;;
23684;SDS011;12020;51.384;6.908;2022-12-07T14:07:22;7.28;;;3.38;;
23684;SDS011;12020;51.384;6.908;2022-12-07T14:10:00;6.28;;;3.45;;
23684;SDS011;12020;51.384;6.908;2022-12-07T14:12:29;6.55;;;3.50;;
23684;SDS011;12020;51.384;6.908;2022-12-07T14:14:57;8.02;;;3.60;;
23684;SDS011;12020;51.384;6.908;2022-12-07T14:17:25;6.05;;;3.60;;
23684;SDS011;12020;51.384;6.908;2022-12-07T14:19:53;8.25;;;3.72;;
23684;SDS011;12020;51.384;6.908;2022-12-07T14:22:29;8.13;;;3.65;;
23684;SDS011;12020;51.384;6.908;2022-12-07T14:24:58;7.80;;;3.30;;
23684;SDS011;12020;51.384;6.908;2022-12-07T14:27:29;5.45;;;3.40;;
23684;SDS011;12020;51.384;6.908;2022-12-07T14:29:58;7.18;;;3.60;;
23684;SDS011;12020;51.384;6.908;2022-12-07T14:32:26;5.47;;;3.20;;
23684;SDS011;12020;51.384;6.908;2022-12-07T14:37:25;6.90;;;3.40;;
23684;SDS011;12020;51.384;6.908;2022-12-07T14:39:52;6.72;;;3.55;;
23684;SDS011;12020;51.384;6.908;2022-12-07T14:42:19;6.60;;;3.10;;
23684;SDS011;12020;51.384;6.908;2022-12-07T14:44:45;6.63;;;3.20;;
23684;SDS011;12020;51.384;6.908;2022-12-07T14:47:12;6.55;;;3.00;;
23684;SDS011;12020;51.384;6.908;2022-12-07T14:49:38;4.90;;;2.83;;
23684;SDS011;12020;51.384;6.908;2022-12-07T14:52:04;7.05;;;3.28;;
23684;SDS011;12020;51.384;6.908;2022-12-07T14:54:31;6.05;;;3.20;;
23684;SDS011;12020;51.384;6.908;2022-12-07T14:56:58;7.28;;;3.10;;
23684;SDS011;12020;51.384;6.908;2022-12-07T14:59:24;6.18;;;3.03;;
23684;SDS011;12020;51.384;6.908;2022-12-07T15:01:50;4.07;;;2.92;;
23684;SDS011;12020;51.384;6.908;2022-12-07T15:04:17;6.13;;;2.60;;
23684;SDS011;12020;51.384;6.908;2022-12-07T15:06:54;6.20;;;2.23;;
23684;SDS011;12020;51.384;6.908;2022-12-07T15:09:24;4.68;;;2.40;;
23684;SDS011;12020;51.384;6.908;2022-12-07T15:11:50;5.47;;;2.25;;
23684;SDS011;12020;51.384;6.908;2022-12-07T15:14:16;4.82;;;2.42;;
23684;SDS011;12020;51.384;6.908;2022-12-07T15:16:42;7.40;;;2.40;;
23684;SDS011;12020;51.384;6.908;2022-12-07T15:19:13;4.95;;;2.42;;
23684;SDS011;12020;51.384;6.908;2022-12-07T15:21:40;6.97;;;2.70;;
23684;SDS011;12020;51.384;6.908;2022-12-07T15:24:08;6.50;;;2.50;;
23684;SDS011;12020;51.384;6.908;2022-12-07T15:26:36;4.38;;;2.28;;
23684;SDS011;12020;51.384;6.908;2022-12-07T15:29:02;4.88;;;2.40;;
23684;SDS011;12020;51.384;6.908;2022-12-07T15:31:28;5.97;;;2.78;;
23684;SDS011;12020;51.384;6.908;2022-12-07T15:33:54;5.53;;;2.53;;
23684;SDS011;12020;51.384;6.908;2022-12-07T15:36:21;8.03;;;2.80;;
23684;SDS011;12020;51.384;6.908;2022-12-07T15:38:49;5.15;;;2.70;;
23684;SDS011;12020;51.384;6.908;2022-12-07T15:41:15;6.17;;;3.10;;
23684;SDS011;12020;51.384;6.908;2022-12-07T15:43:41;6.60;;;3.50;;
23684;SDS011;12020;51.384;6.908;2022-12-07T15:46:32;7.43;;;3.40;;
23684;SDS011;12020;51.384;6.908;2022-12-07T15:48:59;7.40;;;3.30;;
23684;SDS011;12020;51.384;6.908;2022-12-07T15:51:25;6.78;;;3.53;;
23684;SDS011;12020;51.384;6.908;2022-12-07T15:53:52;7.38;;;3.45;;
23684;SDS011;12020;51.384;6.908;2022-12-07T15:56:19;6.93;;;4.00;;
23684;SDS011;12020;51.384;6.908;2022-12-07T15:58:45;6.45;;;3.33;;
23684;SDS011;12020;51.384;6.908;2022-12-07T16:01:15;6.32;;;4.10;;
23684;SDS011;12020;51.384;6.908;2022-12-07T16:03:42;7.28;;;4.13;;
23684;SDS011;12020;51.384;6.908;2022-12-07T16:06:09;8.27;;;4.30;;
23684;SDS011;12020;51.384;6.908;2022-12-07T16:08:35;5.47;;;4.28;;
23684;SDS011;12020;51.384;6.908;2022-12-07T16:11:05;7.70;;;4.47;;
23684;SDS011;12020;51.384;6.908;2022-12-07T16:13:31;10.05;;;4.63;;
23684;SDS011;12020;51.384;6.908;2022-12-07T16:15:57;8.23;;;4.40;;
23684;SDS011;12020;51.384;6.908;2022-12-07T16:18:23;6.53;;;4.15;;
23684;SDS011;12020;51.384;6.908;2022-12-07T16:20:50;7.72;;;4.30;;
23684;SDS011;12020;51.384;6.908;2022-12-07T16:23:15;8.07;;;4.50;;
23684;SDS011;12020;51.384;6.908;2022-12-07T16:25:41;8.93;;;4.50;;
23684;SDS011;12020;51.384;6.908;2022-12-07T16:28:07;7.47;;;4.53;;
23684;SDS011;12020;51.384;6.908;2022-12-07T16:30:34;8.63;;;4.80;;
23684;SDS011;12020;51.384;6.908;2022-12-07T16:32:59;7.27;;;4.63;;
23684;SDS011;12020;51.384;6.908;2022-12-07T16:35:25;8.27;;;5.07;;
23684;SDS011;12020;51.384;6.908;2022-12-07T16:37:51;9.00;;;4.88;;
23684;SDS011;12020;51.384;6.908;2022-12-07T16:40:17;9.18;;;5.18;;